Airfield :
LOGIN :

Register | Disclaimer

   EN    FR    IT 

 










Legend :    VFR   Marginal VFR   IFR   Intensive IFR   Very Intensive IFR
Visi :
Ceiling :
>= 8 km
>= 3000ft
5 to 8 km
1000 to 3000 ft
1500m to 5 km
500 to 1000 ft
800 to 1500m
200 to 500 ft
< 800m
< 200 ft
Symbols :   Thunderstorms  Fog  Heavy snow  Heavy precipitations  Wind > 20 kt
SIGMETs :     Misc.  Thunderstorms  Icing  Turbulence  Mountain Waves  Volcanic Ashes







- Airport Elevation : 228 ft
- IATA code : OPO


LPPR - Porto Fr. Sa Carneiro

CURRENT METAR :
  • 260000Z 29006KT 270V340 9999 TS FEW025CB 17/17 Q1012

EXPIRED METARs :
  • 252330Z 20007KT 150V240 9999 -RA FEW025CB 20/18 Q1012 RETS
  • 252300Z 17005KT 090V260 9999 TS FEW020 FEW025CB 19/18 Q1013
  • 252230Z 12005KT 080V180 9999 TS FEW025CB 20/19 Q1013
  • 252200Z 10005KT 030V160 9000 TS FEW020 SCT025CB 19/19 Q1014
  • 252130Z 28003KT 210V360 9000 -TSRA FEW020 SCT025CB 19/19 Q1015

TAF TAF LPPR
Valid from the 26 at 00:00 until the 27 at 00:00 UTC


252300Z 2600/2624 VRB03KT 9999 SCT020
TEMPO 2600/2618 FEW030TCU
PROB30
TEMPO 2600/2616 5000 TSRA BKN012 FEW025CB
BECMG 2607/2610 26008KT
BECMG 2615/2617 30008KT
BECMG 2621/2624 5000 BR SCT004
No reported NOTAMs for that airfield.



MET'MAP, your aeronautical weather chart ! - Copyright ORBIFLY December 2007 - Disclaimer

ORBIFLY MET'MAP TEAM :

Programming & Development : Alexandra Zaïnal
Concept & Development : Baudouin d'Aumeries
Co-Development & Prog : Marc-Olivier Méhu
Technical & hardware support : Manuel Goepfert

Contact : metmap@orbifly.com




SOURCES & CREDITS :

   NOAA